Penparcau, United Kingdom
Current Conditions -  °F | °C
As of 7:50 AM on Sunday 26 Oct 2014 (Local Time) from EGOP Reporting Station
Broken Clouds Broken Clouds  
Wind Chill: 57°   Ceiling: 3100
Heat Index: 57°   Visibility: 5mi
Dew Point: 52°   Wind: 26mph
Humidity: 82%   Direction: 230°SW
Pressure: 30.06"   Gusts: NA
Location:  52.4°N, 4.07°W
Report Text: EGOP 260650Z AUTO 23023KT 8000 // SCT020/// BKN031/// 14/11 Q1018
Loading
Personal Weather Stations






























Interactive Weather Map
Tropical Storm Tracking
New forecast layout! Learn more

10-Day Weather Forecast

Advertisements
Track Severe Weather on mobile